createdAt,value
2017-06-21T00:02:17.811Z,1018.611
2017-06-21T00:05:12.501Z,1018.622
2017-06-21T00:08:07.290Z,1018.616
2017-06-21T00:11:02.320Z,1018.619
2017-06-21T00:13:56.710Z,1018.652
2017-06-21T00:16:51.477Z,1018.616
2017-06-21T00:19:46.056Z,1018.549
2017-06-21T00:22:40.628Z,1018.539
2017-06-21T00:25:35.226Z,1018.626
2017-06-21T00:28:29.661Z,1018.605
2017-06-21T00:31:24.131Z,1018.555
2017-06-21T00:34:18.515Z,1018.538
2017-06-21T00:37:12.954Z,1018.612
2017-06-21T00:40:07.425Z,1018.641
2017-06-21T00:43:02.095Z,1018.617
2017-06-21T00:45:56.939Z,1018.593
2017-06-21T00:48:51.771Z,1018.577
2017-06-21T00:51:46.757Z,1018.565
2017-06-21T00:54:41.564Z,1018.560
2017-06-21T00:57:36.526Z,1018.517
2017-06-21T01:00:31.332Z,1018.495
2017-06-21T01:03:26.080Z,1018.501
2017-06-21T01:06:20.907Z,1018.546
2017-06-21T01:09:15.876Z,1018.521
2017-06-21T01:12:10.796Z,1018.525
2017-06-21T01:15:05.546Z,1018.569
2017-06-21T01:18:00.222Z,1018.534
2017-06-21T01:20:54.716Z,1018.485
2017-06-21T01:23:49.253Z,1018.515
2017-06-21T01:26:43.733Z,1018.569
2017-06-21T01:29:38.316Z,1018.529
2017-06-21T01:32:33.006Z,1018.534
2017-06-21T01:35:27.311Z,1018.575
2017-06-21T01:38:21.628Z,1018.557
2017-06-21T01:41:15.902Z,1018.497
2017-06-21T01:44:10.123Z,1018.494
2017-06-21T01:47:04.258Z,1018.532
2017-06-21T01:49:57.410Z,1018.529
2017-06-21T01:52:51.079Z,1018.557
2017-06-21T01:55:45.292Z,1018.584
2017-06-21T01:58:39.785Z,1018.631
2017-06-21T02:01:34.188Z,1018.552
2017-06-21T02:04:28.763Z,1018.515
2017-06-21T02:07:23.017Z,1018.520
2017-06-21T02:10:17.358Z,1018.528
2017-06-21T02:13:11.855Z,1018.562
2017-06-21T02:16:06.498Z,1018.560
2017-06-21T02:19:01.199Z,1018.594
2017-06-21T02:21:55.896Z,1018.662
2017-06-21T02:24:50.521Z,1018.710
2017-06-21T02:27:45.240Z,1018.731
2017-06-21T02:30:39.623Z,1018.714
2017-06-21T02:33:33.401Z,1018.703
2017-06-21T02:36:27.529Z,1018.742
2017-06-21T02:39:22.365Z,1018.740
2017-06-21T02:42:17.207Z,1018.750
2017-06-21T02:51:00.989Z,1018.725
2017-06-21T02:53:55.626Z,1018.740
2017-06-21T02:56:50.505Z,1018.775
2017-06-21T03:02:39.864Z,1018.856
2017-06-21T03:05:34.537Z,1018.850
2017-06-21T03:08:29.552Z,1018.900
2017-06-21T03:11:24.441Z,1018.944
2017-06-21T03:14:19.297Z,1018.974
2017-06-21T03:17:14.171Z,1019.004
2017-06-21T03:23:03.964Z,1019.065
2017-06-21T03:31:49.232Z,1019.190
2017-06-21T03:34:44.385Z,1019.192
2017-06-21T03:38:02.250Z,1019.202
2017-06-21T03:41:13.244Z,1019.245
2017-06-21T03:44:46.663Z,1019.302
2017-06-21T03:47:33.149Z,1019.345
2017-06-21T03:58:11.392Z,1019.366
2017-06-21T04:00:55.613Z,1019.382
2017-06-21T04:03:49.924Z,1019.317
2017-06-21T04:06:44.708Z,1019.332
2017-06-21T04:09:39.705Z,1019.307
2017-06-21T04:12:34.667Z,1019.298
2017-06-21T04:28:57.759Z,1019.326
2017-06-21T04:31:41.899Z,1019.335
2017-06-21T04:34:36.125Z,1019.356
2017-06-21T04:37:30.946Z,1019.330
2017-06-21T04:40:26.018Z,1019.325
2017-06-21T04:43:21.170Z,1019.358
2017-06-21T04:46:16.377Z,1019.375
2017-06-21T04:56:54.981Z,1019.429
2017-06-21T04:59:39.287Z,1019.455
2017-06-21T05:02:33.683Z,1019.416
2017-06-21T05:05:28.469Z,1019.329
2017-06-21T05:08:23.654Z,1019.309
2017-06-21T05:11:18.925Z,1019.316
2017-06-21T05:14:14.164Z,1019.308
2017-06-21T05:17:09.471Z,1019.325
2017-06-21T05:25:55.567Z,1019.358
2017-06-21T05:31:46.568Z,1019.339
2017-06-21T05:34:41.953Z,1019.349
2017-06-21T05:37:37.327Z,1019.351
2017-06-21T05:40:32.742Z,1019.285
2017-06-21T05:43:28.341Z,1019.314
2017-06-21T05:46:23.849Z,1019.354
2017-06-21T05:49:19.165Z,1019.344
2017-06-21T05:52:14.599Z,1019.287
2017-06-21T05:58:05.547Z,1019.308
2017-06-21T06:01:00.856Z,1019.247
2017-06-21T06:03:56.244Z,1019.243
2017-06-21T06:06:51.719Z,1019.233
2017-06-21T06:12:42.486Z,1019.191
2017-06-21T06:15:37.987Z,1019.168
2017-06-21T06:21:29.019Z,1019.179
2017-06-21T06:24:24.649Z,1019.184
2017-06-21T06:27:20.131Z,1019.158
2017-06-21T06:30:15.741Z,1019.199
2017-06-21T06:36:06.789Z,1019.068
2017-06-21T06:39:02.224Z,1019.084
2017-06-21T06:44:53.388Z,1019.081
2017-06-21T06:47:48.903Z,1019.013
2017-06-21T06:53:39.980Z,1018.976
2017-06-21T06:59:31.181Z,1019.016
2017-06-21T07:02:26.740Z,1019.085
2017-06-21T07:05:22.395Z,1019.113
2017-06-21T07:08:18.040Z,1019.143
2017-06-21T07:11:13.778Z,1019.155
2017-06-21T07:14:09.446Z,1019.147
2017-06-21T07:17:05.071Z,1019.130
2017-06-21T07:20:00.685Z,1019.132
2017-06-21T07:22:56.379Z,1019.110
2017-06-21T07:25:52.104Z,1019.187
2017-06-21T07:28:47.694Z,1019.116
2017-06-21T07:31:43.336Z,1019.110
2017-06-21T07:34:39.023Z,1019.042
2017-06-21T07:37:34.762Z,1019.086
2017-06-21T07:40:30.417Z,1019.116
2017-06-21T07:43:25.951Z,1019.134
2017-06-21T07:49:17.174Z,1019.016
2017-06-21T07:52:12.893Z,1019.033
2017-06-21T07:55:08.689Z,1018.991
2017-06-21T07:58:04.313Z,1018.940
2017-06-21T08:01:00.004Z,1019.033
2017-06-21T08:06:51.515Z,1019.132
2017-06-21T08:09:47.413Z,1019.089
2017-06-21T08:12:43.268Z,1019.064
2017-06-21T08:21:31.229Z,1018.915
2017-06-21T08:24:27.448Z,1018.885
2017-06-21T08:27:23.651Z,1018.925
2017-06-21T08:33:15.821Z,1018.954
2017-06-21T08:36:11.987Z,1018.933
2017-06-21T08:39:08.167Z,1018.901
2017-06-21T08:42:04.390Z,1018.869
2017-06-21T08:45:00.461Z,1018.851
2017-06-21T08:47:56.501Z,1018.723
2017-06-21T08:50:52.592Z,1018.702
2017-06-21T08:53:48.708Z,1018.685
2017-06-21T08:56:44.802Z,1018.767
2017-06-21T08:59:41.091Z,1018.718
2017-06-21T09:02:37.438Z,1018.624
2017-06-21T09:05:33.696Z,1018.687
2017-06-21T09:08:29.933Z,1018.704
2017-06-21T09:11:26.065Z,1018.699
2017-06-21T09:14:22.259Z,1018.641
2017-06-21T09:17:18.194Z,1018.682
2017-06-21T09:20:14.333Z,1018.718
2017-06-21T09:23:10.470Z,1018.659
2017-06-21T09:26:06.644Z,1018.697
2017-06-21T09:29:02.866Z,1018.721
2017-06-21T09:31:59.063Z,1018.777
2017-06-21T09:34:55.323Z,1018.757
2017-06-21T09:37:51.690Z,1018.694
2017-06-21T09:40:48.059Z,1018.631
2017-06-21T09:43:44.384Z,1018.632
2017-06-21T09:46:40.749Z,1018.603
2017-06-21T09:49:37.056Z,1018.593
2017-06-21T09:52:33.444Z,1018.601
2017-06-21T09:55:29.832Z,1018.586
2017-06-21T09:58:26.221Z,1018.625
2017-06-21T10:01:22.371Z,1018.685
2017-06-21T10:04:18.313Z,1018.665
2017-06-21T10:07:14.474Z,1018.649
2017-06-21T10:10:10.817Z,1018.617
2017-06-21T10:13:06.965Z,1018.543
2017-06-21T10:16:03.246Z,1018.586
2017-06-21T10:18:59.485Z,1018.594
2017-06-21T10:21:55.711Z,1018.582
2017-06-21T10:24:51.890Z,1018.562
2017-06-21T10:27:47.968Z,1018.494
2017-06-21T10:30:43.875Z,1018.514
2017-06-21T10:33:39.357Z,1018.502
2017-06-21T10:36:34.656Z,1018.534
2017-06-21T10:39:30.019Z,1018.523
2017-06-21T10:42:25.416Z,1018.523
2017-06-21T10:45:20.814Z,1018.491
2017-06-21T10:48:16.308Z,1018.540
2017-06-21T10:51:11.737Z,1018.489
2017-06-21T10:54:07.255Z,1018.493
2017-06-21T10:57:02.494Z,1018.537
2017-06-21T10:59:57.640Z,1018.510
2017-06-21T11:02:52.992Z,1018.481
2017-06-21T11:05:48.247Z,1018.532
2017-06-21T11:08:43.536Z,1018.405
2017-06-21T11:11:38.972Z,1018.403
2017-06-21T11:14:34.601Z,1018.424
2017-06-21T11:17:29.979Z,1018.375
2017-06-21T11:20:25.435Z,1018.281
2017-06-21T11:23:20.919Z,1018.410
2017-06-21T11:26:16.442Z,1018.419
2017-06-21T11:29:11.948Z,1018.332
2017-06-21T11:32:07.182Z,1018.296
2017-06-21T11:35:02.453Z,1018.252
2017-06-21T11:37:57.893Z,1018.239
2017-06-21T11:40:53.124Z,1018.121
2017-06-21T11:43:48.453Z,1018.151
2017-06-21T11:46:43.899Z,1018.163
2017-06-21T11:49:39.490Z,1018.086
2017-06-21T11:52:34.855Z,1017.973
2017-06-21T11:55:30.333Z,1017.968
2017-06-21T11:58:25.762Z,1017.927
2017-06-21T12:01:21.288Z,1017.970
2017-06-21T12:04:16.935Z,1017.955
2017-06-21T12:07:12.490Z,1017.892
2017-06-21T12:10:08.129Z,1017.831
2017-06-21T12:15:59.465Z,1017.863
2017-06-21T12:18:55.126Z,1017.859
2017-06-21T12:21:50.746Z,1017.840
2017-06-21T12:27:42.000Z,1017.789
2017-06-21T12:30:37.565Z,1017.730
2017-06-21T12:33:33.184Z,1017.716
2017-06-21T12:36:29.010Z,1017.758
2017-06-21T12:39:24.542Z,1017.779
2017-06-21T12:42:20.238Z,1017.776
2017-06-21T12:45:15.833Z,1017.731
2017-06-21T12:48:11.459Z,1017.747
2017-06-21T12:51:06.998Z,1017.673
2017-06-21T12:54:02.475Z,1017.595
2017-06-21T12:56:57.951Z,1017.543
2017-06-21T12:59:53.594Z,1017.489
2017-06-21T13:02:49.176Z,1017.501
2017-06-21T13:05:44.770Z,1017.506
2017-06-21T13:08:40.251Z,1017.503
2017-06-21T13:11:35.753Z,1017.415
2017-06-21T13:14:31.219Z,1017.361
2017-06-21T13:17:26.890Z,1017.340
2017-06-21T13:20:22.405Z,1017.300
2017-06-21T13:23:17.977Z,1017.340
2017-06-21T13:26:13.495Z,1017.354
2017-06-21T13:29:09.013Z,1017.380
2017-06-21T13:32:04.594Z,1017.418
2017-06-21T13:35:00.090Z,1017.430
2017-06-21T13:37:55.512Z,1017.452
2017-06-21T13:40:51.188Z,1017.434
2017-06-21T13:43:46.719Z,1017.408
2017-06-21T13:46:42.120Z,1017.390
2017-06-21T13:49:37.706Z,1017.358
2017-06-21T13:52:33.171Z,1017.356
2017-06-21T13:55:28.795Z,1017.349
2017-06-21T13:58:24.282Z,1017.360
2017-06-21T14:01:19.775Z,1017.268
2017-06-21T14:04:15.236Z,1017.270
2017-06-21T14:07:10.810Z,1017.279
2017-06-21T14:10:06.209Z,1017.322
2017-06-21T14:13:01.788Z,1017.234
2017-06-21T14:15:57.190Z,1017.177
2017-06-21T14:18:52.622Z,1017.184
2017-06-21T14:21:48.296Z,1017.104
2017-06-21T14:24:43.777Z,1017.084
2017-06-21T14:27:39.235Z,1017.125
2017-06-21T14:30:34.900Z,1017.112
2017-06-21T14:33:30.458Z,1017.059
2017-06-21T14:36:25.978Z,1017.077
2017-06-21T14:39:21.389Z,1017.024
2017-06-21T14:42:16.726Z,1016.977
2017-06-21T14:45:12.259Z,1016.950
2017-06-21T14:51:03.159Z,1016.816
2017-06-21T14:53:58.633Z,1016.835
2017-06-21T14:56:54.215Z,1016.862
2017-06-21T14:59:49.658Z,1016.808
2017-06-21T15:02:45.036Z,1016.776
2017-06-21T15:05:40.474Z,1016.673
2017-06-21T15:08:36.004Z,1016.595
2017-06-21T15:11:31.454Z,1016.582
2017-06-21T15:14:27.004Z,1016.579
2017-06-21T15:17:22.376Z,1016.551
2017-06-21T15:20:17.779Z,1016.479
2017-06-21T15:23:13.197Z,1016.374
2017-06-21T15:26:08.595Z,1016.392
2017-06-21T15:29:04.119Z,1016.511
2017-06-21T15:31:59.517Z,1016.466
2017-06-21T15:34:54.795Z,1016.428
2017-06-21T15:40:45.587Z,1016.419
2017-06-21T15:43:41.013Z,1016.431
2017-06-21T15:46:36.385Z,1016.388
2017-06-21T15:49:31.802Z,1016.443
2017-06-21T15:52:27.307Z,1016.437
2017-06-21T15:55:22.698Z,1016.425
2017-06-21T15:58:18.092Z,1016.355
2017-06-21T16:01:13.421Z,1016.241
2017-06-21T16:07:04.208Z,1016.289
2017-06-21T16:09:59.630Z,1016.282
2017-06-21T16:12:54.982Z,1016.311
2017-06-21T16:15:50.368Z,1016.230
2017-06-21T16:21:41.414Z,1016.148
2017-06-21T16:27:32.139Z,1016.206
2017-06-21T16:30:27.427Z,1016.301
2017-06-21T16:33:22.887Z,1016.272
2017-06-21T16:36:18.353Z,1016.317
2017-06-21T16:39:13.780Z,1016.278
2017-06-21T16:42:09.123Z,1016.190
2017-06-21T16:45:04.541Z,1016.203
2017-06-21T16:47:59.973Z,1016.156
2017-06-21T16:50:55.520Z,1016.161
2017-06-21T16:53:50.814Z,1016.145
2017-06-21T16:56:46.236Z,1016.173
2017-06-21T16:59:41.641Z,1016.243
2017-06-21T17:02:37.010Z,1016.353
2017-06-21T17:05:32.363Z,1016.365
2017-06-21T17:08:27.644Z,1016.286
2017-06-21T17:11:22.968Z,1016.264
2017-06-21T17:14:18.372Z,1016.260
2017-06-21T17:17:13.726Z,1016.219
2017-06-21T17:20:09.045Z,1016.205
2017-06-21T17:23:04.388Z,1016.126
2017-06-21T17:25:59.676Z,1016.141
2017-06-21T17:28:55.242Z,1016.249
2017-06-21T17:31:50.421Z,1016.313
2017-06-21T17:34:45.841Z,1016.213
2017-06-21T17:37:41.192Z,1016.218
2017-06-21T17:40:36.560Z,1016.255
2017-06-21T17:43:31.767Z,1016.250
2017-06-21T17:46:27.112Z,1016.239
2017-06-21T17:49:22.342Z,1016.250
2017-06-21T17:52:17.712Z,1016.254
2017-06-21T17:55:12.996Z,1016.285
2017-06-21T17:58:08.235Z,1016.272
2017-06-21T18:01:03.596Z,1016.232
2017-06-21T18:03:58.854Z,1016.200
2017-06-21T18:06:54.171Z,1016.152
2017-06-21T18:09:49.478Z,1016.120
2017-06-21T18:12:44.832Z,1016.084
2017-06-21T18:15:40.146Z,1016.072
2017-06-21T18:18:35.594Z,1016.050
2017-06-21T18:21:30.983Z,1016.041
2017-06-21T18:24:26.228Z,1016.036
2017-06-21T18:27:21.471Z,1016.062
2017-06-21T18:30:16.733Z,1016.048
2017-06-21T18:33:12.035Z,1016.084
2017-06-21T18:36:07.314Z,1016.120
2017-06-21T18:39:02.493Z,1016.091
2017-06-21T18:41:57.726Z,1016.050
2017-06-21T18:44:52.981Z,1016.062
2017-06-21T18:47:48.179Z,1016.141
2017-06-21T18:50:43.448Z,1016.106
2017-06-21T18:53:38.558Z,1016.113
2017-06-21T18:56:33.739Z,1016.138
2017-06-21T18:59:29.018Z,1016.127
2017-06-21T19:02:24.264Z,1016.116
2017-06-21T19:05:19.515Z,1016.110
2017-06-21T19:08:14.807Z,1016.081
2017-06-21T19:11:10.214Z,1016.069
2017-06-21T19:14:05.630Z,1016.076
2017-06-21T19:17:00.964Z,1016.068
2017-06-21T19:19:56.276Z,1016.045
2017-06-21T19:22:51.563Z,1016.031
2017-06-21T19:25:46.882Z,1016.058
2017-06-21T19:28:42.247Z,1016.116
2017-06-21T19:31:37.640Z,1016.152
2017-06-21T19:34:32.992Z,1016.236
2017-06-21T19:40:23.741Z,1016.230
2017-06-21T19:43:19.088Z,1016.252
2017-06-21T19:46:14.358Z,1016.250
2017-06-21T19:49:09.659Z,1016.291
2017-06-21T19:55:00.281Z,1016.365
2017-06-21T19:57:55.553Z,1016.386
2017-06-21T20:00:50.918Z,1016.362
2017-06-21T20:03:46.139Z,1016.339
2017-06-21T20:06:41.343Z,1016.305
2017-06-21T20:09:36.708Z,1016.316
2017-06-21T20:12:31.847Z,1016.281
2017-06-21T20:15:27.100Z,1016.215
2017-06-21T20:18:22.337Z,1016.231
2017-06-21T20:21:17.559Z,1016.276
2017-06-21T20:24:12.771Z,1016.293
2017-06-21T20:27:08.048Z,1016.292
2017-06-21T20:30:03.196Z,1016.298
2017-06-21T20:32:58.546Z,1016.283
2017-06-21T20:41:44.334Z,1016.177
2017-06-21T20:44:39.536Z,1016.240
2017-06-21T20:47:34.751Z,1016.285
2017-06-21T20:50:30.008Z,1016.259
2017-06-21T20:53:25.245Z,1016.246
2017-06-21T20:56:20.475Z,1016.254
2017-06-21T20:59:15.803Z,1016.310
2017-06-21T21:02:11.002Z,1016.406
2017-06-21T21:05:06.193Z,1016.454
2017-06-21T21:08:01.311Z,1016.464
2017-06-21T21:10:56.554Z,1016.443
2017-06-21T21:13:51.652Z,1016.471
2017-06-21T21:16:46.875Z,1016.494
2017-06-21T21:19:42.147Z,1016.523
2017-06-21T21:22:37.247Z,1016.494
2017-06-21T21:25:32.353Z,1016.450
2017-06-21T21:28:27.550Z,1016.450
2017-06-21T21:31:22.698Z,1016.430
2017-06-21T21:34:17.978Z,1016.396
2017-06-21T21:37:13.161Z,1016.432
2017-06-21T21:40:08.338Z,1016.536
2017-06-21T21:43:03.514Z,1016.547
2017-06-21T21:45:58.616Z,1016.535
2017-06-21T21:48:53.609Z,1016.477
2017-06-21T21:51:48.741Z,1016.505
2017-06-21T21:54:43.835Z,1016.489
2017-06-21T21:57:38.895Z,1016.468
2017-06-21T22:03:29.075Z,1016.386
2017-06-21T22:06:24.174Z,1016.388
2017-06-21T22:09:19.121Z,1016.268
2017-06-21T22:12:14.179Z,1016.223
2017-06-21T22:15:09.110Z,1016.273
2017-06-21T22:18:04.208Z,1016.335
2017-06-21T22:20:59.128Z,1016.355
2017-06-21T22:23:54.082Z,1016.346
2017-06-21T22:26:49.109Z,1016.314
2017-06-21T22:29:44.065Z,1016.260
2017-06-21T22:32:39.074Z,1016.110
2017-06-21T22:35:33.998Z,1016.031
2017-06-21T22:38:28.993Z,1016.109
2017-06-21T22:41:23.978Z,1016.067
2017-06-21T22:44:18.828Z,1016.110
2017-06-21T22:47:13.833Z,1016.028
2017-06-21T22:50:08.850Z,1016.029
2017-06-21T22:53:03.747Z,1016.011
2017-06-21T22:55:58.565Z,1016.057
2017-06-21T22:58:53.555Z,1016.048
2017-06-21T23:01:48.398Z,1016.157
2017-06-21T23:04:43.374Z,1016.190
2017-06-21T23:07:38.338Z,1016.176
2017-06-21T23:13:28.434Z,1016.194
2017-06-21T23:16:23.558Z,1016.181
2017-06-21T23:19:18.539Z,1016.218
2017-06-21T23:22:13.654Z,1016.205
2017-06-21T23:25:08.689Z,1016.230
2017-06-21T23:28:03.870Z,1016.233
2017-06-21T23:30:58.857Z,1016.165
2017-06-21T23:33:53.988Z,1016.129
2017-06-21T23:36:48.998Z,1016.138
2017-06-21T23:39:44.041Z,1016.210
2017-06-21T23:42:39.085Z,1016.248
2017-06-21T23:45:34.082Z,1016.268
2017-06-21T23:48:29.072Z,1016.269
2017-06-21T23:51:23.990Z,1016.295
2017-06-21T23:57:13.989Z,1016.249
